createdAt,value
2023-03-23T15:59:53.837Z,6.60
2023-03-23T16:05:15.895Z,6.20
2023-03-23T16:10:38.103Z,8.00
2023-03-23T16:16:00.010Z,7.43
2023-03-23T16:21:21.956Z,7.30
2023-03-23T16:26:43.779Z,8.27
2023-03-23T16:32:05.750Z,7.25
2023-03-23T16:37:27.591Z,6.78
2023-03-23T16:42:49.675Z,6.45
2023-03-23T16:48:13.270Z,6.57
2023-03-23T16:53:35.424Z,4.97
2023-03-23T16:58:57.237Z,5.72
2023-03-23T17:04:19.154Z,7.55
2023-03-23T17:09:42.560Z,4.20
2023-03-23T17:15:05.841Z,6.20
2023-03-23T17:20:27.697Z,5.57
2023-03-23T17:25:49.778Z,4.75
2023-03-23T17:31:11.614Z,7.88
2023-03-23T17:36:33.497Z,6.70
2023-03-23T17:41:55.711Z,7.88
2023-03-23T17:47:17.568Z,9.02
2023-03-23T17:52:40.627Z,8.93
2023-03-23T17:58:02.512Z,8.30
2023-03-23T18:03:25.178Z,9.13
2023-03-23T18:08:47.089Z,8.85
2023-03-23T18:14:08.966Z,7.18
2023-03-23T18:19:30.770Z,9.75
2023-03-23T18:24:52.637Z,8.82
2023-03-23T18:30:14.841Z,7.88
2023-03-23T18:35:36.695Z,7.55
2023-03-23T18:40:59.535Z,8.93
2023-03-23T18:46:21.401Z,7.15
2023-03-23T18:51:43.269Z,10.43
2023-03-23T18:57:05.096Z,10.90
2023-03-23T19:02:27.088Z,9.15
2023-03-23T19:07:49.037Z,9.75
2023-03-23T19:13:10.970Z,12.27
2023-03-23T19:18:33.514Z,9.50
2023-03-23T19:23:55.842Z,8.05
2023-03-23T19:29:26.500Z,10.48
2023-03-23T19:34:51.169Z,9.60
2023-03-23T19:40:31.075Z,8.00
2023-03-23T19:45:55.182Z,7.35
2023-03-23T19:51:21.474Z,9.63
2023-03-23T19:56:43.466Z,6.07
2023-03-23T20:02:05.524Z,4.75
2023-03-23T20:07:27.365Z,7.30
2023-03-23T20:12:49.264Z,5.38
2023-03-23T20:18:11.024Z,6.10
2023-03-23T20:23:33.697Z,5.30
2023-03-23T20:28:55.868Z,5.45
2023-03-23T20:34:18.030Z,3.65
2023-03-23T20:39:39.883Z,5.05
2023-03-23T20:45:02.537Z,6.18
2023-03-23T20:50:24.400Z,3.28
2023-03-23T20:55:46.411Z,4.35
2023-03-23T21:01:08.610Z,6.35
2023-03-23T21:06:31.231Z,5.88
2023-03-23T21:11:53.973Z,4.57
2023-03-23T21:17:15.825Z,3.72
2023-03-23T21:22:37.999Z,5.32
2023-03-23T21:28:00.159Z,5.28
2023-03-23T21:33:22.023Z,5.28
2023-03-23T21:38:44.017Z,4.53
2023-03-23T21:44:06.003Z,5.63
2023-03-23T21:49:28.742Z,4.78
2023-03-23T21:54:50.602Z,7.22
2023-03-23T22:00:12.939Z,5.22
2023-03-23T22:05:38.985Z,4.97
2023-03-23T22:11:03.266Z,9.03
2023-03-23T22:16:26.135Z,5.50
2023-03-23T22:21:48.084Z,6.63
2023-03-23T22:27:09.957Z,6.03
2023-03-23T22:32:31.836Z,9.98
2023-03-23T22:37:54.277Z,8.63
2023-03-23T22:43:16.151Z,9.07
2023-03-23T22:48:38.260Z,9.25
2023-03-23T22:54:00.164Z,9.10
2023-03-23T22:59:22.200Z,10.48
2023-03-23T23:04:44.100Z,8.63
2023-03-23T23:10:06.866Z,9.32
2023-03-23T23:15:28.761Z,8.02
2023-03-23T23:20:53.171Z,8.65
2023-03-23T23:26:16.337Z,7.90
2023-03-23T23:31:38.271Z,6.88
2023-03-23T23:37:00.563Z,7.65
2023-03-23T23:42:23.269Z,8.07
2023-03-23T23:47:46.029Z,5.47
2023-03-23T23:53:08.212Z,6.32
2023-03-23T23:58:30.368Z,6.93
